createdAt,value
2022-11-25T00:01:16.919Z,100107.97
2022-11-25T00:03:44.789Z,100111.53
2022-11-25T00:06:12.990Z,100114.97
2022-11-25T00:08:40.707Z,100108.63
2022-11-25T00:11:07.737Z,100107.47
2022-11-25T00:13:35.019Z,100104.69
2022-11-25T00:16:03.290Z,100093.09
2022-11-25T00:18:31.016Z,100100.97
2022-11-25T00:20:57.949Z,100093.78
2022-11-25T00:23:29.167Z,100086.28
2022-11-25T00:26:09.833Z,100093.31
2022-11-25T00:28:36.976Z,100086.28
2022-11-25T00:31:26.687Z,100088.59
2022-11-25T00:33:53.899Z,100078.94
2022-11-25T00:36:25.175Z,100072.72
2022-11-25T00:38:59.118Z,100078.00
2022-11-25T00:41:45.391Z,100075.69
2022-11-25T00:44:33.087Z,100071.78
2022-11-25T00:47:00.109Z,100064.44
2022-11-25T00:49:27.800Z,100064.44
2022-11-25T00:51:55.072Z,100058.09
2022-11-25T00:54:21.912Z,100067.84
2022-11-25T00:56:49.274Z,100064.59
2022-11-25T00:59:15.888Z,100059.84
2022-11-25T01:01:42.570Z,100055.06
2022-11-25T01:04:10.147Z,100050.31
2022-11-25T01:06:37.695Z,100058.09
2022-11-25T01:09:06.389Z,100058.09
2022-11-25T01:11:33.634Z,100063.78
2022-11-25T01:14:01.641Z,100053.25
2022-11-25T01:16:29.377Z,100066.31
2022-11-25T01:18:56.146Z,100059.47
2022-11-25T01:21:25.445Z,100064.13
2022-11-25T01:23:52.847Z,100062.56
2022-11-25T01:26:22.263Z,100061.47
2022-11-25T01:28:49.503Z,100070.41
2022-11-25T01:31:19.076Z,100071.34
2022-11-25T01:33:47.259Z,100068.94
2022-11-25T01:36:18.498Z,100077.25
2022-11-25T01:38:45.884Z,100083.47
2022-11-25T01:41:14.622Z,100091.34
2022-11-25T01:43:41.812Z,100102.25
2022-11-25T01:46:35.216Z,100100.59
2022-11-25T01:49:06.173Z,100107.31
2022-11-25T01:51:42.201Z,100112.88
2022-11-25T01:54:12.127Z,100106.03
2022-11-25T01:56:47.064Z,100108.00
2022-11-25T01:59:14.276Z,100115.66
2022-11-25T02:01:41.184Z,100128.09
2022-11-25T02:04:09.786Z,100121.59
2022-11-25T02:06:42.041Z,100126.63
2022-11-25T02:09:09.206Z,100131.97
2022-11-25T02:11:41.817Z,100129.84
2022-11-25T02:14:09.672Z,100137.56
2022-11-25T02:16:36.553Z,100138.38
2022-11-25T02:19:03.952Z,100145.88
2022-11-25T02:22:00.210Z,100132.69
2022-11-25T02:24:46.199Z,100140.53
2022-11-25T02:27:13.943Z,100149.84
2022-11-25T02:29:44.087Z,100150.16
2022-11-25T02:32:10.839Z,100148.66
2022-11-25T02:34:49.108Z,100159.78
2022-11-25T02:37:18.708Z,100166.28
2022-11-25T02:39:47.584Z,100162.22
2022-11-25T02:42:15.703Z,100173.66
2022-11-25T02:44:45.513Z,100170.72
2022-11-25T02:47:12.276Z,100171.84
2022-11-25T02:49:39.122Z,100176.44
2022-11-25T02:52:05.650Z,100175.75
2022-11-25T02:54:32.361Z,100181.03
2022-11-25T02:57:01.056Z,100170.06
2022-11-25T02:59:27.735Z,100179.00
2022-11-25T03:01:55.444Z,100175.28
2022-11-25T03:04:25.728Z,100174.66
2022-11-25T03:06:52.446Z,100180.53
2022-11-25T03:09:19.138Z,100181.97
2022-11-25T03:12:04.347Z,100178.56
2022-11-25T03:14:30.888Z,100182.38
2022-11-25T03:16:57.515Z,100187.25
2022-11-25T03:19:26.153Z,100172.88
2022-11-25T03:21:52.785Z,100170.44
2022-11-25T03:24:19.729Z,100178.44
2022-11-25T03:26:48.636Z,100176.63
2022-11-25T03:29:15.651Z,100177.75
2022-11-25T03:31:42.479Z,100172.41
2022-11-25T03:34:12.343Z,100139.63
2022-11-25T03:36:39.474Z,100153.66
2022-11-25T03:39:07.815Z,100158.53
2022-11-25T03:41:36.808Z,100174.50
2022-11-25T03:44:03.505Z,100166.66
2022-11-25T03:46:30.552Z,100177.13
2022-11-25T03:48:58.292Z,100174.50
2022-11-25T03:51:24.975Z,100176.81
2022-11-25T03:53:52.762Z,100187.91
2022-11-25T03:56:21.421Z,100182.63
2022-11-25T03:58:47.983Z,100193.59
2022-11-25T04:01:16.156Z,100202.25
2022-11-25T04:03:44.661Z,100198.19
2022-11-25T04:06:11.212Z,100206.69
2022-11-25T04:08:39.006Z,100210.41
2022-11-25T04:11:07.143Z,100205.91
2022-11-25T04:13:39.269Z,100210.28
2022-11-25T04:16:05.990Z,100212.44
2022-11-25T04:18:32.865Z,100213.72
2022-11-25T04:21:00.151Z,100208.47
2022-11-25T04:23:27.025Z,100227.28
2022-11-25T04:26:00.912Z,100227.59
2022-11-25T04:28:34.034Z,100227.94
2022-11-25T04:31:06.168Z,100229.03
2022-11-25T04:33:33.945Z,100236.06
2022-11-25T04:36:00.688Z,100237.75
2022-11-25T04:38:27.321Z,100250.31
2022-11-25T04:40:55.105Z,100248.03
2022-11-25T04:43:23.420Z,100246.06
2022-11-25T04:46:13.510Z,100241.81
2022-11-25T04:48:41.338Z,100248.66
2022-11-25T04:51:27.639Z,100253.38
2022-11-25T04:53:58.788Z,100254.41
2022-11-25T04:56:25.682Z,100258.81
2022-11-25T04:59:12.819Z,100252.75
2022-11-25T05:01:43.793Z,100259.91
2022-11-25T05:04:35.200Z,100264.38
2022-11-25T05:07:02.119Z,100264.38
2022-11-25T05:09:29.206Z,100265.69
2022-11-25T05:12:18.525Z,100275.16
2022-11-25T05:14:45.423Z,100277.06
2022-11-25T05:17:18.641Z,100278.72
2022-11-25T05:19:46.122Z,100283.44
2022-11-25T05:22:16.856Z,100293.72
2022-11-25T05:24:45.560Z,100296.97
2022-11-25T05:27:13.513Z,100291.41
2022-11-25T05:29:40.176Z,100294.09
2022-11-25T05:32:09.562Z,100289.50
2022-11-25T05:34:37.836Z,100290.16
2022-11-25T05:37:24.690Z,100296.97
2022-11-25T05:39:58.533Z,100299.28
2022-11-25T05:42:45.540Z,100312.53
2022-11-25T05:45:12.401Z,100305.50
2022-11-25T05:47:40.190Z,100315.31
2022-11-25T05:50:08.038Z,100312.03
2022-11-25T05:52:34.969Z,100317.59
2022-11-25T05:55:02.057Z,100314.81
2022-11-25T05:57:29.211Z,100319.06
2022-11-25T06:00:05.960Z,100321.97
2022-11-25T06:02:42.157Z,100326.88
2022-11-25T06:05:12.037Z,100325.91
2022-11-25T06:07:38.980Z,100332.94
2022-11-25T06:10:07.378Z,100336.19
2022-11-25T06:12:36.474Z,100334.53
2022-11-25T06:15:03.717Z,100338.16
2022-11-25T06:17:30.801Z,100338.63
2022-11-25T06:20:08.010Z,100338.97
2022-11-25T06:22:35.023Z,100326.88
2022-11-25T06:25:03.876Z,100344.34
2022-11-25T06:27:56.902Z,100341.41
2022-11-25T06:30:21.105Z,100345.00
2022-11-25T06:33:01.869Z,100338.81
2022-11-25T06:35:28.580Z,100342.38
2022-11-25T06:37:59.051Z,100347.91
2022-11-25T06:40:25.672Z,100351.53
2022-11-25T06:42:52.367Z,100351.19
2022-11-25T06:45:19.486Z,100357.25
2022-11-25T06:47:46.285Z,100359.38
2022-11-25T06:50:13.141Z,100360.66
2022-11-25T06:52:39.701Z,100363.44
2022-11-25T06:55:06.637Z,100373.38
2022-11-25T06:57:33.286Z,100380.22
2022-11-25T06:59:59.927Z,100381.84
2022-11-25T07:02:26.554Z,100389.53
2022-11-25T07:04:53.827Z,100392.78
2022-11-25T07:07:20.586Z,100396.19
2022-11-25T07:09:47.677Z,100394.91
2022-11-25T07:12:14.378Z,100398.00
2022-11-25T07:14:41.070Z,100406.31
2022-11-25T07:17:11.980Z,100408.94
2022-11-25T07:19:38.922Z,100407.28
2022-11-25T07:22:05.703Z,100408.94
2022-11-25T07:24:33.945Z,100414.66
2022-11-25T07:27:00.821Z,100415.78
2022-11-25T07:29:54.167Z,100427.66
2022-11-25T07:32:15.192Z,100431.25
2022-11-25T07:34:41.957Z,100434.38
2022-11-25T07:37:08.788Z,100436.19
2022-11-25T07:39:35.666Z,100451.84
2022-11-25T07:42:02.477Z,100453.69
2022-11-25T07:44:29.033Z,100459.56
2022-11-25T07:47:21.442Z,100467.88
2022-11-25T07:49:48.218Z,100464.28
2022-11-25T07:52:14.712Z,100472.25
2022-11-25T07:54:41.325Z,100479.09
2022-11-25T07:57:07.952Z,100476.81
2022-11-25T07:59:36.341Z,100471.25
2022-11-25T08:02:03.101Z,100483.34
2022-11-25T08:04:29.702Z,100488.91
2022-11-25T08:07:15.324Z,100494.44
2022-11-25T08:09:42.131Z,100492.63
2022-11-25T08:12:08.793Z,100491.31
2022-11-25T08:14:35.771Z,100497.41
2022-11-25T08:17:04.510Z,100496.09
2022-11-25T08:19:32.198Z,100504.44
2022-11-25T08:21:58.980Z,100506.72
2022-11-25T08:24:25.740Z,100511.31
2022-11-25T08:26:54.343Z,100515.53
2022-11-25T08:29:20.952Z,100513.41
2022-11-25T08:31:47.664Z,100518.13
2022-11-25T08:34:23.398Z,100522.53
2022-11-25T08:36:54.067Z,100525.50
2022-11-25T08:39:50.641Z,100521.09
2022-11-25T08:42:08.762Z,100533.16
2022-11-25T08:44:36.331Z,100539.53
2022-11-25T08:47:03.041Z,100546.56
2022-11-25T08:49:32.789Z,100546.69
2022-11-25T08:52:02.966Z,100551.41
2022-11-25T08:54:29.537Z,100557.47
2022-11-25T08:56:56.214Z,100554.00
2022-11-25T08:59:22.916Z,100557.06
2022-11-25T09:01:49.912Z,100558.91
2022-11-25T09:04:16.492Z,100555.81
2022-11-25T09:06:43.160Z,100564.31
2022-11-25T09:09:09.831Z,100567.91
2022-11-25T09:11:36.568Z,100572.66
2022-11-25T09:14:03.323Z,100574.97
2022-11-25T09:16:30.101Z,100575.78
2022-11-25T09:18:57.017Z,100579.88
2022-11-25T09:21:25.129Z,100575.25
2022-11-25T09:23:54.655Z,100579.03
2022-11-25T09:26:29.618Z,100577.72
2022-11-25T09:28:56.675Z,100595.19
2022-11-25T09:31:23.924Z,100593.72
2022-11-25T09:33:51.184Z,100596.19
2022-11-25T09:36:19.555Z,100606.78
2022-11-25T09:38:47.155Z,100609.88
2022-11-25T09:42:01.324Z,100607.09
2022-11-25T09:45:05.988Z,100611.22
2022-11-25T09:48:06.323Z,100623.44
2022-11-25T09:51:02.472Z,100618.72
2022-11-25T09:53:52.200Z,100619.38
2022-11-25T09:56:48.948Z,100619.38
2022-11-25T09:59:19.526Z,100623.28
2022-11-25T10:02:21.485Z,100640.75
2022-11-25T10:04:54.746Z,100637.34
2022-11-25T10:07:30.099Z,100643.19
2022-11-25T10:09:58.327Z,100647.59
2022-11-25T10:12:30.771Z,100646.47
2022-11-25T10:15:02.970Z,100647.63
2022-11-25T10:17:35.283Z,100657.72
2022-11-25T10:20:07.917Z,100663.78
2022-11-25T10:22:37.752Z,100662.81
2022-11-25T10:25:18.759Z,100658.06
2022-11-25T10:28:02.489Z,100665.09
2022-11-25T10:30:41.214Z,100667.84
2022-11-25T10:33:19.416Z,100666.72
2022-11-25T10:35:57.390Z,100670.00
2022-11-25T10:38:30.610Z,100680.44
2022-11-25T10:40:57.347Z,100688.13
2022-11-25T10:43:27.298Z,100685.03
2022-11-25T10:46:19.060Z,100687.50
2022-11-25T10:49:09.061Z,100682.91
2022-11-25T10:51:39.768Z,100702.03
2022-11-25T10:54:27.285Z,100700.72
2022-11-25T10:56:57.688Z,100698.09
2022-11-25T10:59:39.841Z,100698.94
2022-11-25T11:02:24.932Z,100700.56
2022-11-25T11:04:51.464Z,100700.56
2022-11-25T11:07:18.075Z,100696.00
2022-11-25T11:09:46.043Z,100709.09
2022-11-25T11:12:27.777Z,100713.81
2022-11-25T11:15:15.749Z,100711.03
2022-11-25T11:17:42.411Z,100712.66
2022-11-25T11:20:09.296Z,100723.13
2022-11-25T11:22:44.728Z,100724.75
2022-11-25T11:25:20.538Z,100735.56
2022-11-25T11:27:47.721Z,100729.69
2022-11-25T11:30:17.347Z,100740.13
2022-11-25T11:32:47.959Z,100742.56
2022-11-25T11:35:29.408Z,100743.13
2022-11-25T11:38:07.332Z,100744.28
2022-11-25T11:40:47.169Z,100746.13
2022-11-25T11:43:35.856Z,100751.00
2022-11-25T11:46:17.215Z,100744.00
2022-11-25T11:49:05.821Z,100743.22
2022-11-25T11:52:07.880Z,100749.09
2022-11-25T11:54:44.860Z,100756.47
2022-11-25T11:57:23.109Z,100749.28
2022-11-25T11:59:53.461Z,100755.97
2022-11-25T12:02:24.004Z,100760.88
2022-11-25T12:04:53.474Z,100765.94
2022-11-25T12:07:49.927Z,100768.56
2022-11-25T12:10:24.057Z,100778.22
2022-11-25T12:13:04.250Z,100781.34
2022-11-25T12:16:10.217Z,100781.50
2022-11-25T12:18:56.918Z,100783.28
2022-11-25T12:21:51.660Z,100785.09
2022-11-25T12:24:37.336Z,100784.09
2022-11-25T12:27:08.615Z,100793.94
2022-11-25T12:29:52.376Z,100790.00
2022-11-25T12:32:44.996Z,100793.44
2022-11-25T12:35:11.768Z,100807.34
2022-11-25T12:37:46.707Z,100803.22
2022-11-25T12:40:33.731Z,100797.00
2022-11-25T12:43:21.931Z,100795.06
2022-11-25T12:45:54.330Z,100798.03
2022-11-25T12:48:21.709Z,100793.59
2022-11-25T12:51:02.787Z,100805.88
2022-11-25T12:53:54.712Z,100812.91
2022-11-25T12:56:33.117Z,100810.94
2022-11-25T12:59:27.175Z,100814.53
2022-11-25T13:02:27.652Z,100820.75
2022-11-25T13:08:52.527Z,100836.47
2022-11-25T13:11:45.552Z,100841.88
2022-11-25T13:14:31.063Z,100840.22
2022-11-25T13:17:00.262Z,100849.56
2022-11-25T13:19:27.641Z,100847.25
2022-11-25T13:24:42.567Z,100852.34
2022-11-25T13:27:31.943Z,100858.38
2022-11-25T13:30:00.158Z,100855.13
2022-11-25T13:32:35.871Z,100867.25
2022-11-25T13:38:06.358Z,100878.03
2022-11-25T13:40:37.580Z,100884.25
2022-11-25T13:43:23.021Z,100885.38
2022-11-25T13:45:50.320Z,100881.31
2022-11-25T13:48:24.431Z,100886.03
2022-11-25T13:51:10.818Z,100889.81
2022-11-25T13:53:38.884Z,100900.47
2022-11-25T13:56:24.467Z,100894.06
2022-11-25T13:59:09.941Z,100893.41
2022-11-25T14:01:41.530Z,100893.59
2022-11-25T14:04:12.791Z,100898.78
2022-11-25T14:06:51.074Z,100906.31
2022-11-25T14:09:41.173Z,100904.19
2022-11-25T14:12:14.218Z,100894.91
2022-11-25T14:15:18.204Z,100909.13
2022-11-25T14:18:03.255Z,100918.13
2022-11-25T14:20:45.194Z,100924.88
2022-11-25T14:23:22.612Z,100922.91
2022-11-25T14:25:52.911Z,100921.91
2022-11-25T14:28:47.173Z,100924.53
2022-11-25T14:31:23.229Z,100925.19
2022-11-25T14:33:58.250Z,100935.00
2022-11-25T14:36:30.683Z,100920.78
2022-11-25T14:39:06.282Z,100930.75
2022-11-25T14:41:37.107Z,100934.34
2022-11-25T14:44:13.787Z,100938.44
2022-11-25T14:46:57.950Z,100942.03
2022-11-25T14:49:59.448Z,100945.97
2022-11-25T14:52:35.848Z,100949.56
2022-11-25T14:55:05.719Z,100954.00
2022-11-25T14:57:35.711Z,100959.22
2022-11-25T15:00:07.176Z,100965.78
2022-11-25T15:02:36.691Z,100973.63
2022-11-25T15:05:16.378Z,100985.41
2022-11-25T15:07:58.316Z,100989.69
2022-11-25T15:10:39.172Z,101004.72
2022-11-25T15:13:23.049Z,101002.13
2022-11-25T15:15:50.747Z,100999.81
2022-11-25T15:18:21.607Z,101010.94
2022-11-25T15:20:53.404Z,101018.97
2022-11-25T15:23:32.030Z,101025.19
2022-11-25T15:25:58.835Z,101027.69
2022-11-25T15:28:25.455Z,101031.94
2022-11-25T15:31:16.432Z,101036.22
2022-11-25T15:33:44.329Z,101036.75
2022-11-25T15:36:10.968Z,101044.78
2022-11-25T15:38:43.779Z,101047.56
2022-11-25T15:41:34.831Z,101060.69
2022-11-25T15:44:06.247Z,101060.09
2022-11-25T15:46:35.757Z,101073.22
2022-11-25T15:49:06.092Z,101076.00
2022-11-25T15:51:43.439Z,101078.78
2022-11-25T15:54:13.230Z,101081.91
2022-11-25T15:56:47.202Z,101091.13
2022-11-25T15:59:45.928Z,101095.38
2022-11-25T16:02:27.435Z,101104.06
2022-11-25T16:05:16.433Z,101099.47
2022-11-25T16:07:52.339Z,101100.41
2022-11-25T16:10:26.431Z,101116.78
2022-11-25T16:13:22.001Z,101118.09
2022-11-25T16:15:57.944Z,101114.34
2022-11-25T16:18:42.632Z,101113.63
2022-11-25T16:21:15.750Z,101120.19
2022-11-25T16:23:47.456Z,101127.41
2022-11-25T16:26:20.035Z,101126.09
2022-11-25T16:28:57.809Z,101136.06
2022-11-25T16:31:25.572Z,101139.50
2022-11-25T16:34:09.604Z,101137.22
2022-11-25T16:36:36.257Z,101145.88
2022-11-25T16:39:03.741Z,101156.53
2022-11-25T16:41:30.904Z,101157.84
2022-11-25T16:44:00.891Z,101164.56
2022-11-25T16:46:29.624Z,101168.81
2022-11-25T16:48:56.259Z,101163.56
2022-11-25T16:51:24.985Z,101164.72
2022-11-25T16:53:51.644Z,101174.53
2022-11-25T16:56:26.585Z,101179.56
2022-11-25T16:58:53.456Z,101178.78
2022-11-25T17:01:26.555Z,101179.25
2022-11-25T17:03:53.505Z,101188.31
2022-11-25T17:06:23.017Z,101196.81
2022-11-25T17:08:50.273Z,101199.94
2022-11-25T17:11:27.248Z,101209.19
2022-11-25T17:13:54.837Z,101213.28
2022-11-25T17:16:26.834Z,101221.97
2022-11-25T17:18:55.565Z,101218.41
2022-11-25T17:21:26.942Z,101225.78
2022-11-25T17:23:55.513Z,101227.16
2022-11-25T17:26:33.374Z,101220.25
2022-11-25T17:29:01.897Z,101232.22
2022-11-25T17:31:31.377Z,101240.72
2022-11-25T17:33:58.454Z,101245.16
2022-11-25T17:36:26.299Z,101251.72
2022-11-25T17:38:52.953Z,101257.44
2022-11-25T17:41:22.019Z,101255.81
2022-11-25T17:43:52.043Z,101263.50
2022-11-25T17:46:18.968Z,101269.06
2022-11-25T17:48:45.618Z,101277.75
2022-11-25T17:51:14.250Z,101276.03
2022-11-25T17:53:41.690Z,101276.53
2022-11-25T17:56:20.057Z,101286.41
2022-11-25T17:58:46.860Z,101290.97
2022-11-25T18:01:14.852Z,101292.09
2022-11-25T18:03:41.519Z,101297.53
2022-11-25T18:06:08.237Z,101312.22
2022-11-25T18:08:37.855Z,101322.34
2022-11-25T18:11:06.391Z,101331.22
2022-11-25T18:13:44.316Z,101321.22
2022-11-25T18:16:11.921Z,101336.16
2022-11-25T18:18:38.859Z,101343.53
2022-11-25T18:21:05.531Z,101345.13
2022-11-25T18:23:32.164Z,101345.91
2022-11-25T18:26:03.298Z,101347.91
2022-11-25T18:28:31.898Z,101352.09
2022-11-25T18:31:02.974Z,101347.66
2022-11-25T18:33:30.371Z,101352.25
2022-11-25T18:35:57.483Z,101355.19
2022-11-25T18:38:24.266Z,101353.34
2022-11-25T18:40:53.907Z,101356.91
2022-11-25T18:43:23.302Z,101362.47
2022-11-25T18:45:50.611Z,101366.75
2022-11-25T18:48:23.098Z,101372.56
2022-11-25T18:50:52.485Z,101378.75
2022-11-25T18:53:19.278Z,101374.22
2022-11-25T18:55:46.693Z,101378.34
2022-11-25T18:58:19.124Z,101385.16
2022-11-25T19:00:48.707Z,101390.94
2022-11-25T19:03:21.214Z,101391.97
2022-11-25T19:05:48.910Z,101399.81
2022-11-25T19:08:15.724Z,101414.63
2022-11-25T19:10:44.551Z,101401.22
2022-11-25T19:13:27.540Z,101410.09
2022-11-25T19:15:54.408Z,101416.28
2022-11-25T19:18:26.691Z,101415.25
2022-11-25T19:20:53.364Z,101424.75
2022-11-25T19:23:25.423Z,101420.00
2022-11-25T19:25:54.232Z,101428.03
2022-11-25T19:28:21.706Z,101431.13
2022-11-25T19:30:48.435Z,101428.16
2022-11-25T19:33:27.038Z,101430.31
2022-11-25T19:35:53.880Z,101432.28
2022-11-25T19:38:26.138Z,101432.78
2022-11-25T19:40:57.098Z,101445.34
2022-11-25T19:43:27.008Z,101445.34
2022-11-25T19:45:56.266Z,101448.44
2022-11-25T19:48:24.985Z,101450.09
2022-11-25T19:50:59.336Z,101457.91
2022-11-25T19:53:33.189Z,101465.44
2022-11-25T19:56:04.105Z,101469.34
2022-11-25T19:58:31.261Z,101468.84
2022-11-25T20:01:02.387Z,101480.69
2022-11-25T20:03:31.096Z,101479.97
2022-11-25T20:05:58.180Z,101485.53
2022-11-25T20:08:27.903Z,101493.38
2022-11-25T20:10:56.161Z,101483.97
2022-11-25T20:13:24.123Z,101482.84
2022-11-25T20:15:51.357Z,101487.38
2022-11-25T20:18:22.316Z,101497.88
2022-11-25T20:20:56.011Z,101497.66
2022-11-25T20:23:43.350Z,101495.81
2022-11-25T20:26:29.763Z,101495.00
2022-11-25T20:28:56.769Z,101500.94
2022-11-25T20:31:28.667Z,101496.63
2022-11-25T20:33:56.920Z,101498.47
2022-11-25T20:36:31.149Z,101510.19
2022-11-25T20:38:59.777Z,101517.00
2022-11-25T20:41:28.119Z,101519.69
2022-11-25T20:43:56.471Z,101520.50
2022-11-25T20:46:28.922Z,101522.78
2022-11-25T20:48:59.144Z,101525.75
2022-11-25T20:51:26.436Z,101530.84
2022-11-25T20:53:56.262Z,101525.25
2022-11-25T20:56:24.768Z,101541.34
2022-11-25T20:58:51.516Z,101532.28
2022-11-25T21:01:21.434Z,101538.97
2022-11-25T21:03:49.719Z,101540.31
2022-11-25T21:06:22.783Z,101544.03
2022-11-25T21:08:52.268Z,101554.88
2022-11-25T21:11:20.309Z,101553.59
2022-11-25T21:13:47.786Z,101558.44
2022-11-25T21:16:14.870Z,101563.50
2022-11-25T21:18:42.895Z,101564.72
2022-11-25T21:21:16.856Z,101561.94
2022-11-25T21:23:45.137Z,101569.16
2022-11-25T21:26:20.326Z,101568.94
2022-11-25T21:28:49.938Z,101575.34
2022-11-25T21:31:20.110Z,101571.84
2022-11-25T21:33:48.059Z,101582.63
2022-11-25T21:36:21.883Z,101580.47
2022-11-25T21:38:51.346Z,101588.81
2022-11-25T21:41:18.752Z,101599.41
2022-11-25T21:43:48.724Z,101596.91
2022-11-25T21:46:20.858Z,101606.41
2022-11-25T21:48:48.132Z,101611.72
2022-11-25T21:51:21.615Z,101612.84
2022-11-25T21:53:49.175Z,101620.34
2022-11-25T21:56:30.735Z,101625.72
2022-11-25T21:58:59.635Z,101621.28
2022-11-25T22:01:26.414Z,101621.38
2022-11-25T22:03:53.511Z,101632.78
2022-11-25T22:06:28.787Z,101636.16
2022-11-25T22:08:56.644Z,101632.56
2022-11-25T22:11:35.958Z,101636.75
2022-11-25T22:14:04.588Z,101634.06
2022-11-25T22:16:34.814Z,101635.50
2022-11-25T22:19:01.988Z,101640.22
2022-11-25T22:21:28.760Z,101638.88
2022-11-25T22:23:58.495Z,101636.19
2022-11-25T22:26:33.573Z,101642.88
2022-11-25T22:29:01.345Z,101641.84
2022-11-25T22:31:28.540Z,101644.06
2022-11-25T22:33:55.979Z,101644.06
2022-11-25T22:36:28.435Z,101643.03
2022-11-25T22:38:55.105Z,101651.44
2022-11-25T22:41:22.018Z,101655.59
2022-11-25T22:43:52.462Z,101657.63
2022-11-25T22:46:19.523Z,101663.97
2022-11-25T22:48:46.390Z,101657.91
2022-11-25T22:51:17.936Z,101664.19
2022-11-25T22:53:44.727Z,101668.50
2022-11-25T22:56:18.948Z,101670.94
2022-11-25T22:58:46.434Z,101677.06
2022-11-25T23:01:14.995Z,101689.88
2022-11-25T23:03:43.203Z,101690.47
2022-11-25T23:06:13.950Z,101691.53
2022-11-25T23:08:41.015Z,101694.38
2022-11-25T23:11:16.627Z,101695.28
2022-11-25T23:13:43.489Z,101700.50
2022-11-25T23:16:10.746Z,101696.88
2022-11-25T23:18:43.269Z,101701.13
2022-11-25T23:21:23.050Z,101707.22
2022-11-25T23:23:50.413Z,101704.69
2022-11-25T23:26:17.476Z,101717.19
2022-11-25T23:28:44.189Z,101707.88
2022-11-25T23:31:13.651Z,101720.63
2022-11-25T23:33:46.505Z,101718.22
2022-11-25T23:36:22.067Z,101727.47
2022-11-25T23:38:55.382Z,101736.75
2022-11-25T23:41:24.776Z,101733.47
2022-11-25T23:43:51.472Z,101740.00
2022-11-25T23:46:22.705Z,101731.13
2022-11-25T23:49:17.771Z,101740.47
2022-11-25T23:51:44.493Z,101734.34
2022-11-25T23:54:15.291Z,101740.13
2022-11-25T23:56:42.799Z,101748.56
2022-11-25T23:59:14.639Z,101754.66
